sensor_id;sensor_type;location;lat;lon;timestamp;temperature;humidity
26703;DHT22;14316;51.074;3.704;2022-08-21T00:01:27;16.00;99.90
26703;DHT22;14316;51.074;3.704;2022-08-21T00:03:55;16.00;99.90
26703;DHT22;14316;51.074;3.704;2022-08-21T00:06:22;15.90;99.90
26703;DHT22;14316;51.074;3.704;2022-08-21T00:08:52;15.90;99.90
26703;DHT22;14316;51.074;3.704;2022-08-21T00:11:18;15.90;99.90
26703;DHT22;14316;51.074;3.704;2022-08-21T00:13:44;15.90;99.90
26703;DHT22;14316;51.074;3.704;2022-08-21T00:16:10;15.90;99.90
26703;DHT22;14316;51.074;3.704;2022-08-21T00:18:37;15.90;99.90
26703;DHT22;14316;51.074;3.704;2022-08-21T00:21:03;15.90;99.90
26703;DHT22;14316;51.074;3.704;2022-08-21T00:23:29;16.00;99.90
26703;DHT22;14316;51.074;3.704;2022-08-21T00:25:56;16.10;99.90
26703;DHT22;14316;51.074;3.704;2022-08-21T00:28:21;16.20;99.90
26703;DHT22;14316;51.074;3.704;2022-08-21T00:30:48;16.10;99.90
26703;DHT22;14316;51.074;3.704;2022-08-21T00:33:13;16.10;99.90
26703;DHT22;14316;51.074;3.704;2022-08-21T00:35:41;16.00;99.90
26703;DHT22;14316;51.074;3.704;2022-08-21T00:38:08;16.00;99.90
26703;DHT22;14316;51.074;3.704;2022-08-21T00:40:42;16.00;99.90
26703;DHT22;14316;51.074;3.704;2022-08-21T00:43:11;16.00;99.90
26703;DHT22;14316;51.074;3.704;2022-08-21T00:45:38;16.00;99.90
26703;DHT22;14316;51.074;3.704;2022-08-21T00:48:04;15.90;99.90
26703;DHT22;14316;51.074;3.704;2022-08-21T00:50:33;15.90;99.90
26703;DHT22;14316;51.074;3.704;2022-08-21T00:53:01;15.80;99.90
26703;DHT22;14316;51.074;3.704;2022-08-21T00:55:29;15.80;99.90
26703;DHT22;14316;51.074;3.704;2022-08-21T00:57:57;15.80;99.90
26703;DHT22;14316;51.074;3.704;2022-08-21T01:00:29;15.70;99.90
26703;DHT22;14316;51.074;3.704;2022-08-21T01:02:56;15.70;99.90
26703;DHT22;14316;51.074;3.704;2022-08-21T01:05:22;15.70;99.90
26703;DHT22;14316;51.074;3.704;2022-08-21T01:07:48;15.70;99.90
26703;DHT22;14316;51.074;3.704;2022-08-21T01:10:14;15.60;99.90
26703;DHT22;14316;51.074;3.704;2022-08-21T01:12:40;15.60;99.90
26703;DHT22;14316;51.074;3.704;2022-08-21T01:15:08;15.60;99.90
26703;DHT22;14316;51.074;3.704;2022-08-21T01:17:34;15.50;99.90
26703;DHT22;14316;51.074;3.704;2022-08-21T01:20:03;15.40;99.90
26703;DHT22;14316;51.074;3.704;2022-08-21T01:22:29;15.40;99.90
26703;DHT22;14316;51.074;3.704;2022-08-21T01:24:55;15.30;99.90
26703;DHT22;14316;51.074;3.704;2022-08-21T01:27:21;15.30;99.90
26703;DHT22;14316;51.074;3.704;2022-08-21T01:32:19;15.30;99.90
26703;DHT22;14316;51.074;3.704;2022-08-21T01:34:47;15.20;99.90
26703;DHT22;14316;51.074;3.704;2022-08-21T01:37:14;15.20;99.90
26703;DHT22;14316;51.074;3.704;2022-08-21T01:39:41;15.20;99.90
26703;DHT22;14316;51.074;3.704;2022-08-21T01:42:08;15.20;99.90
26703;DHT22;14316;51.074;3.704;2022-08-21T01:44:34;15.20;99.90
26703;DHT22;14316;51.074;3.704;2022-08-21T01:47:03;15.20;99.90
26703;DHT22;14316;51.074;3.704;2022-08-21T01:49:29;15.10;99.90
26703;DHT22;14316;51.074;3.704;2022-08-21T01:51:55;15.10;99.90
26703;DHT22;14316;51.074;3.704;2022-08-21T01:54:21;15.20;99.90
26703;DHT22;14316;51.074;3.704;2022-08-21T01:56:51;15.10;99.90
26703;DHT22;14316;51.074;3.704;2022-08-21T01:59:18;15.10;99.90
26703;DHT22;14316;51.074;3.704;2022-08-21T02:01:44;15.20;99.90
26703;DHT22;14316;51.074;3.704;2022-08-21T02:04:10;15.10;99.90
26703;DHT22;14316;51.074;3.704;2022-08-21T02:06:36;15.10;99.90
26703;DHT22;14316;51.074;3.704;2022-08-21T02:09:04;15.10;99.90
26703;DHT22;14316;51.074;3.704;2022-08-21T02:11:31;15.10;99.90
26703;DHT22;14316;51.074;3.704;2022-08-21T02:13:57;15.10;99.90
26703;DHT22;14316;51.074;3.704;2022-08-21T02:16:24;15.10;99.90
26703;DHT22;14316;51.074;3.704;2022-08-21T02:18:50;15.10;99.90
26703;DHT22;14316;51.074;3.704;2022-08-21T02:21:16;15.10;99.90
26703;DHT22;14316;51.074;3.704;2022-08-21T02:23:42;15.10;99.90
26703;DHT22;14316;51.074;3.704;2022-08-21T02:26:08;15.10;99.90
26703;DHT22;14316;51.074;3.704;2022-08-21T02:28:35;15.10;99.90
26703;DHT22;14316;51.074;3.704;2022-08-21T02:31:01;15.10;99.90
26703;DHT22;14316;51.074;3.704;2022-08-21T02:33:27;15.10;99.90
26703;DHT22;14316;51.074;3.704;2022-08-21T02:35:53;15.10;99.90
26703;DHT22;14316;51.074;3.704;2022-08-21T02:38:23;15.10;99.90
26703;DHT22;14316;51.074;3.704;2022-08-21T02:40:50;15.00;99.90
26703;DHT22;14316;51.074;3.704;2022-08-21T02:43:17;15.00;99.90
26703;DHT22;14316;51.074;3.704;2022-08-21T02:45:44;15.00;99.90
26703;DHT22;14316;51.074;3.704;2022-08-21T02:48:13;14.90;99.90
26703;DHT22;14316;51.074;3.704;2022-08-21T02:50:52;14.90;99.90
26703;DHT22;14316;51.074;3.704;2022-08-21T02:53:18;14.90;99.90
26703;DHT22;14316;51.074;3.704;2022-08-21T02:55:47;14.80;99.90
26703;DHT22;14316;51.074;3.704;2022-08-21T02:58:20;14.80;99.90
26703;DHT22;14316;51.074;3.704;2022-08-21T03:00:46;14.80;99.90
26703;DHT22;14316;51.074;3.704;2022-08-21T03:03:12;14.80;99.90
26703;DHT22;14316;51.074;3.704;2022-08-21T03:05:39;14.80;99.90
26703;DHT22;14316;51.074;3.704;2022-08-21T03:08:08;14.80;99.90
26703;DHT22;14316;51.074;3.704;2022-08-21T03:10:38;14.80;99.90
26703;DHT22;14316;51.074;3.704;2022-08-21T03:13:05;14.80;99.90
26703;DHT22;14316;51.074;3.704;2022-08-21T03:15:32;14.80;99.90
26703;DHT22;14316;51.074;3.704;2022-08-21T03:17:58;14.80;99.90
26703;DHT22;14316;51.074;3.704;2022-08-21T03:20:26;14.80;99.90
26703;DHT22;14316;51.074;3.704;2022-08-21T03:22:53;14.80;99.90
26703;DHT22;14316;51.074;3.704;2022-08-21T03:25:21;14.70;99.90
26703;DHT22;14316;51.074;3.704;2022-08-21T03:27:47;14.80;99.90
26703;DHT22;14316;51.074;3.704;2022-08-21T03:30:17;14.80;99.90
26703;DHT22;14316;51.074;3.704;2022-08-21T03:32:44;14.80;99.90
26703;DHT22;14316;51.074;3.704;2022-08-21T03:35:11;14.80;99.90
26703;DHT22;14316;51.074;3.704;2022-08-21T03:37:37;14.80;99.90
26703;DHT22;14316;51.074;3.704;2022-08-21T03:40:05;14.80;99.90
26703;DHT22;14316;51.074;3.704;2022-08-21T03:42:32;14.70;99.90
26703;DHT22;14316;51.074;3.704;2022-08-21T03:44:58;14.70;99.90
26703;DHT22;14316;51.074;3.704;2022-08-21T03:47:24;14.70;99.90
26703;DHT22;14316;51.074;3.704;2022-08-21T03:49:50;14.70;99.90
26703;DHT22;14316;51.074;3.704;2022-08-21T03:52:16;14.70;99.90
26703;DHT22;14316;51.074;3.704;2022-08-21T03:54:43;14.70;99.90
26703;DHT22;14316;51.074;3.704;2022-08-21T03:57:09;14.70;99.90
26703;DHT22;14316;51.074;3.704;2022-08-21T03:59:36;14.70;99.90
26703;DHT22;14316;51.074;3.704;2022-08-21T04:02:04;14.60;99.90
26703;DHT22;14316;51.074;3.704;2022-08-21T04:04:31;14.60;99.90
26703;DHT22;14316;51.074;3.704;2022-08-21T04:06:57;14.60;99.90
26703;DHT22;14316;51.074;3.704;2022-08-21T04:09:24;14.50;99.90
26703;DHT22;14316;51.074;3.704;2022-08-21T04:11:50;14.60;99.90
26703;DHT22;14316;51.074;3.704;2022-08-21T04:14:16;14.50;99.90
26703;DHT22;14316;51.074;3.704;2022-08-21T04:16:43;14.50;99.90
26703;DHT22;14316;51.074;3.704;2022-08-21T04:19:11;14.50;99.90
26703;DHT22;14316;51.074;3.704;2022-08-21T04:21:39;14.40;99.90
26703;DHT22;14316;51.074;3.704;2022-08-21T04:24:07;14.40;99.90
26703;DHT22;14316;51.074;3.704;2022-08-21T04:26:33;14.40;99.90
26703;DHT22;14316;51.074;3.704;2022-08-21T04:29:00;14.40;99.90
26703;DHT22;14316;51.074;3.704;2022-08-21T04:31:27;14.40;99.90
26703;DHT22;14316;51.074;3.704;2022-08-21T04:33:54;14.30;99.90
26703;DHT22;14316;51.074;3.704;2022-08-21T04:36:21;14.40;99.90
26703;DHT22;14316;51.074;3.704;2022-08-21T04:38:48;14.30;99.90
26703;DHT22;14316;51.074;3.704;2022-08-21T04:41:13;14.30;99.90
26703;DHT22;14316;51.074;3.704;2022-08-21T04:43:40;14.30;99.90
26703;DHT22;14316;51.074;3.704;2022-08-21T04:46:06;14.30;99.90
26703;DHT22;14316;51.074;3.704;2022-08-21T04:48:32;14.30;99.90
26703;DHT22;14316;51.074;3.704;2022-08-21T04:51:08;14.30;99.90
26703;DHT22;14316;51.074;3.704;2022-08-21T04:53:59;14.30;99.90
26703;DHT22;14316;51.074;3.704;2022-08-21T04:56:36;14.30;99.90
26703;DHT22;14316;51.074;3.704;2022-08-21T04:59:14;14.40;99.90
26703;DHT22;14316;51.074;3.704;2022-08-21T05:01:41;14.30;99.90
26703;DHT22;14316;51.074;3.704;2022-08-21T05:04:11;14.40;99.90
26703;DHT22;14316;51.074;3.704;2022-08-21T05:06:39;14.40;99.90
26703;DHT22;14316;51.074;3.704;2022-08-21T05:09:07;14.40;99.90
26703;DHT22;14316;51.074;3.704;2022-08-21T05:11:35;14.40;99.90
26703;DHT22;14316;51.074;3.704;2022-08-21T05:14:01;14.40;99.90
26703;DHT22;14316;51.074;3.704;2022-08-21T05:16:27;14.50;99.90
26703;DHT22;14316;51.074;3.704;2022-08-21T05:18:52;14.50;99.90
26703;DHT22;14316;51.074;3.704;2022-08-21T05:21:18;14.50;99.90
26703;DHT22;14316;51.074;3.704;2022-08-21T05:23:44;14.50;99.90
26703;DHT22;14316;51.074;3.704;2022-08-21T05:26:09;14.50;99.90
26703;DHT22;14316;51.074;3.704;2022-08-21T05:28:35;14.50;99.90
26703;DHT22;14316;51.074;3.704;2022-08-21T05:31:01;14.50;99.90
26703;DHT22;14316;51.074;3.704;2022-08-21T05:33:27;14.50;99.90
26703;DHT22;14316;51.074;3.704;2022-08-21T05:35:54;14.50;99.90
26703;DHT22;14316;51.074;3.704;2022-08-21T05:38:24;14.50;99.90
26703;DHT22;14316;51.074;3.704;2022-08-21T05:40:50;14.60;99.90
26703;DHT22;14316;51.074;3.704;2022-08-21T05:43:15;14.60;99.90
26703;DHT22;14316;51.074;3.704;2022-08-21T05:45:41;14.60;99.90
26703;DHT22;14316;51.074;3.704;2022-08-21T05:48:08;14.70;99.90
26703;DHT22;14316;51.074;3.704;2022-08-21T05:50:35;14.70;99.90
26703;DHT22;14316;51.074;3.704;2022-08-21T05:53:01;14.80;99.90
26703;DHT22;14316;51.074;3.704;2022-08-21T05:55:27;14.90;99.90
26703;DHT22;14316;51.074;3.704;2022-08-21T05:57:53;14.90;99.90
26703;DHT22;14316;51.074;3.704;2022-08-21T06:00:20;15.00;99.90
26703;DHT22;14316;51.074;3.704;2022-08-21T06:02:49;15.00;99.90
26703;DHT22;14316;51.074;3.704;2022-08-21T06:05:16;15.10;99.90
26703;DHT22;14316;51.074;3.704;2022-08-21T06:07:42;15.20;99.90
26703;DHT22;14316;51.074;3.704;2022-08-21T06:10:09;15.30;99.90
26703;DHT22;14316;51.074;3.704;2022-08-21T06:12:34;15.30;99.90
26703;DHT22;14316;51.074;3.704;2022-08-21T06:15:03;15.40;99.90
26703;DHT22;14316;51.074;3.704;2022-08-21T06:17:41;15.60;99.90
26703;DHT22;14316;51.074;3.704;2022-08-21T06:20:07;15.60;99.90
26703;DHT22;14316;51.074;3.704;2022-08-21T06:22:33;15.70;99.90
26703;DHT22;14316;51.074;3.704;2022-08-21T06:24:59;15.70;99.90
26703;DHT22;14316;51.074;3.704;2022-08-21T06:27:25;15.80;99.90
26703;DHT22;14316;51.074;3.704;2022-08-21T06:29:50;15.90;99.90
26703;DHT22;14316;51.074;3.704;2022-08-21T06:32:16;16.00;99.90
26703;DHT22;14316;51.074;3.704;2022-08-21T06:34:42;16.10;99.90
26703;DHT22;14316;51.074;3.704;2022-08-21T06:37:08;16.20;99.90
26703;DHT22;14316;51.074;3.704;2022-08-21T06:39:34;16.30;99.90
26703;DHT22;14316;51.074;3.704;2022-08-21T06:42:00;16.40;99.90
26703;DHT22;14316;51.074;3.704;2022-08-21T06:44:26;16.50;99.90
26703;DHT22;14316;51.074;3.704;2022-08-21T06:46:52;16.60;99.90
26703;DHT22;14316;51.074;3.704;2022-08-21T06:49:18;16.60;99.90
26703;DHT22;14316;51.074;3.704;2022-08-21T06:51:44;16.70;99.90
26703;DHT22;14316;51.074;3.704;2022-08-21T06:54:09;16.80;99.90
26703;DHT22;14316;51.074;3.704;2022-08-21T06:56:36;16.90;99.90
26703;DHT22;14316;51.074;3.704;2022-08-21T06:59:04;17.00;99.90
26703;DHT22;14316;51.074;3.704;2022-08-21T07:01:31;17.20;99.90
26703;DHT22;14316;51.074;3.704;2022-08-21T07:03:57;17.30;99.90
26703;DHT22;14316;51.074;3.704;2022-08-21T07:06:23;17.50;99.90
26703;DHT22;14316;51.074;3.704;2022-08-21T07:08:49;17.50;99.90
26703;DHT22;14316;51.074;3.704;2022-08-21T07:11:20;17.70;99.90
26703;DHT22;14316;51.074;3.704;2022-08-21T07:13:47;17.80;99.90
26703;DHT22;14316;51.074;3.704;2022-08-21T07:16:13;17.90;99.90
26703;DHT22;14316;51.074;3.704;2022-08-21T07:18:39;17.90;99.90
26703;DHT22;14316;51.074;3.704;2022-08-21T07:21:06;18.00;99.90
26703;DHT22;14316;51.074;3.704;2022-08-21T07:23:36;18.00;99.90
26703;DHT22;14316;51.074;3.704;2022-08-21T07:26:03;18.00;99.90
26703;DHT22;14316;51.074;3.704;2022-08-21T07:28:29;18.10;99.90
26703;DHT22;14316;51.074;3.704;2022-08-21T07:30:57;18.20;99.90
26703;DHT22;14316;51.074;3.704;2022-08-21T07:33:24;18.10;99.90
26703;DHT22;14316;51.074;3.704;2022-08-21T07:35:50;18.30;99.90
26703;DHT22;14316;51.074;3.704;2022-08-21T07:38:16;18.30;99.90
26703;DHT22;14316;51.074;3.704;2022-08-21T07:40:43;18.20;99.90
26703;DHT22;14316;51.074;3.704;2022-08-21T07:43:09;18.20;99.90
26703;DHT22;14316;51.074;3.704;2022-08-21T07:45:35;18.20;99.90
26703;DHT22;14316;51.074;3.704;2022-08-21T07:48:00;18.30;99.90
26703;DHT22;14316;51.074;3.704;2022-08-21T07:50:26;18.50;99.90
26703;DHT22;14316;51.074;3.704;2022-08-21T07:52:52;18.60;99.90
26703;DHT22;14316;51.074;3.704;2022-08-21T07:55:20;18.70;99.90
26703;DHT22;14316;51.074;3.704;2022-08-21T07:57:47;18.70;99.90
26703;DHT22;14316;51.074;3.704;2022-08-21T08:00:16;18.80;99.90
26703;DHT22;14316;51.074;3.704;2022-08-21T08:02:45;18.90;99.90
26703;DHT22;14316;51.074;3.704;2022-08-21T08:05:12;18.80;99.90
26703;DHT22;14316;51.074;3.704;2022-08-21T08:07:55;18.70;99.90
26703;DHT22;14316;51.074;3.704;2022-08-21T08:10:22;18.60;99.90
26703;DHT22;14316;51.074;3.704;2022-08-21T08:12:48;18.70;99.90
26703;DHT22;14316;51.074;3.704;2022-08-21T08:15:20;18.70;99.90
26703;DHT22;14316;51.074;3.704;2022-08-21T08:17:46;18.80;99.90
26703;DHT22;14316;51.074;3.704;2022-08-21T08:20:13;18.70;99.90
26703;DHT22;14316;51.074;3.704;2022-08-21T08:22:40;18.80;99.90
26703;DHT22;14316;51.074;3.704;2022-08-21T08:25:08;18.90;99.90
26703;DHT22;14316;51.074;3.704;2022-08-21T08:27:34;19.10;99.90
26703;DHT22;14316;51.074;3.704;2022-08-21T08:29:59;19.20;99.90
26703;DHT22;14316;51.074;3.704;2022-08-21T08:32:25;19.30;99.90
26703;DHT22;14316;51.074;3.704;2022-08-21T08:34:51;19.40;99.90
26703;DHT22;14316;51.074;3.704;2022-08-21T08:37:19;19.50;99.90
26703;DHT22;14316;51.074;3.704;2022-08-21T08:39:46;19.80;99.90
26703;DHT22;14316;51.074;3.704;2022-08-21T08:42:24;19.80;99.90
26703;DHT22;14316;51.074;3.704;2022-08-21T08:44:57;20.00;99.90
26703;DHT22;14316;51.074;3.704;2022-08-21T08:47:25;20.20;99.90
26703;DHT22;14316;51.074;3.704;2022-08-21T08:52:41;20.80;99.90
26703;DHT22;14316;51.074;3.704;2022-08-21T08:55:12;21.00;99.90
26703;DHT22;14316;51.074;3.704;2022-08-21T08:57:44;20.90;99.90
26703;DHT22;14316;51.074;3.704;2022-08-21T09:00:13;21.10;99.90
26703;DHT22;14316;51.074;3.704;2022-08-21T09:02:41;21.20;99.90
26703;DHT22;14316;51.074;3.704;2022-08-21T09:05:13;21.20;99.90
26703;DHT22;14316;51.074;3.704;2022-08-21T09:10:45;21.00;99.90
26703;DHT22;14316;51.074;3.704;2022-08-21T09:13:19;20.90;99.90
26703;DHT22;14316;51.074;3.704;2022-08-21T09:21:32;21.10;99.90
26703;DHT22;14316;51.074;3.704;2022-08-21T09:27:10;21.20;99.90
26703;DHT22;14316;51.074;3.704;2022-08-21T09:29:42;21.40;99.90
26703;DHT22;14316;51.074;3.704;2022-08-21T09:32:29;21.20;99.90
26703;DHT22;14316;51.074;3.704;2022-08-21T09:35:07;21.30;99.90
26703;DHT22;14316;51.074;3.704;2022-08-21T09:37:58;21.60;99.90
26703;DHT22;14316;51.074;3.704;2022-08-21T09:43:22;21.70;99.90
26703;DHT22;14316;51.074;3.704;2022-08-21T09:46:05;21.90;99.90
26703;DHT22;14316;51.074;3.704;2022-08-21T09:48:49;22.00;99.90
26703;DHT22;14316;51.074;3.704;2022-08-21T09:51:21;22.20;99.90
26703;DHT22;14316;51.074;3.704;2022-08-21T09:56:50;22.60;99.90
26703;DHT22;14316;51.074;3.704;2022-08-21T09:59:36;22.60;99.90
26703;DHT22;14316;51.074;3.704;2022-08-21T10:05:22;22.70;99.90
26703;DHT22;14316;51.074;3.704;2022-08-21T10:07:47;22.80;99.90
26703;DHT22;14316;51.074;3.704;2022-08-21T10:10:23;22.80;99.90
26703;DHT22;14316;51.074;3.704;2022-08-21T10:13:07;22.70;99.90
26703;DHT22;14316;51.074;3.704;2022-08-21T10:15:55;22.90;99.90
26703;DHT22;14316;51.074;3.704;2022-08-21T10:18:41;23.00;99.90
26703;DHT22;14316;51.074;3.704;2022-08-21T10:21:22;22.90;99.90
26703;DHT22;14316;51.074;3.704;2022-08-21T10:29:38;23.00;99.90
26703;DHT22;14316;51.074;3.704;2022-08-21T10:35:17;23.40;99.90
26703;DHT22;14316;51.074;3.704;2022-08-21T10:38:12;23.50;99.90
26703;DHT22;14316;51.074;3.704;2022-08-21T10:43:50;23.30;99.90
26703;DHT22;14316;51.074;3.704;2022-08-21T10:51:49;23.10;99.90
26703;DHT22;14316;51.074;3.704;2022-08-21T10:57:16;23.30;99.90
26703;DHT22;14316;51.074;3.704;2022-08-21T10:59:51;24.10;99.90
26703;DHT22;14316;51.074;3.704;2022-08-21T11:02:26;24.90;99.90
26703;DHT22;14316;51.074;3.704;2022-08-21T11:04:59;24.80;99.90
26703;DHT22;14316;51.074;3.704;2022-08-21T11:07:38;25.50;99.90
26703;DHT22;14316;51.074;3.704;2022-08-21T11:10:23;25.40;99.90
26703;DHT22;14316;51.074;3.704;2022-08-21T11:12:58;25.30;99.90
26703;DHT22;14316;51.074;3.704;2022-08-21T11:15:45;25.50;99.90
26703;DHT22;14316;51.074;3.704;2022-08-21T11:18:33;25.30;99.90
26703;DHT22;14316;51.074;3.704;2022-08-21T11:21:29;25.60;99.90
26703;DHT22;14316;51.074;3.704;2022-08-21T11:26:43;26.40;99.90
26703;DHT22;14316;51.074;3.704;2022-08-21T11:29:16;26.80;99.90
26703;DHT22;14316;51.074;3.704;2022-08-21T11:34:39;25.60;99.90
26703;DHT22;14316;51.074;3.704;2022-08-21T11:43:42;24.90;99.90
26703;DHT22;14316;51.074;3.704;2022-08-21T11:56:43;24.90;99.90
26703;DHT22;14316;51.074;3.704;2022-08-21T11:59:21;24.50;99.90
26703;DHT22;14316;51.074;3.704;2022-08-21T12:01:50;25.10;99.90
26703;DHT22;14316;51.074;3.704;2022-08-21T12:04:29;25.80;99.90
26703;DHT22;14316;51.074;3.704;2022-08-21T12:06:55;26.10;99.90
26703;DHT22;14316;51.074;3.704;2022-08-21T12:12:11;28.00;99.90
26703;DHT22;14316;51.074;3.704;2022-08-21T12:14:39;28.00;99.90
26703;DHT22;14316;51.074;3.704;2022-08-21T12:17:08;28.20;99.90
26703;DHT22;14316;51.074;3.704;2022-08-21T12:19:41;27.90;99.90
26703;DHT22;14316;51.074;3.704;2022-08-21T12:22:12;27.10;99.90
26703;DHT22;14316;51.074;3.704;2022-08-21T12:24:51;26.80;99.90
26703;DHT22;14316;51.074;3.704;2022-08-21T12:27:29;26.10;99.90
26703;DHT22;14316;51.074;3.704;2022-08-21T12:30:06;25.90;99.90
26703;DHT22;14316;51.074;3.704;2022-08-21T12:32:59;25.60;99.90
26703;DHT22;14316;51.074;3.704;2022-08-21T12:35:36;25.70;99.90
26703;DHT22;14316;51.074;3.704;2022-08-21T12:38:32;26.10;99.90
26703;DHT22;14316;51.074;3.704;2022-08-21T12:41:02;27.00;99.90
26703;DHT22;14316;51.074;3.704;2022-08-21T12:43:35;27.20;99.90
26703;DHT22;14316;51.074;3.704;2022-08-21T12:46:04;27.60;99.90
26703;DHT22;14316;51.074;3.704;2022-08-21T12:48:48;27.40;99.90
26703;DHT22;14316;51.074;3.704;2022-08-21T12:51:25;27.70;99.90
26703;DHT22;14316;51.074;3.704;2022-08-21T12:53:54;27.50;99.90
26703;DHT22;14316;51.074;3.704;2022-08-21T12:56:23;26.80;99.90
26703;DHT22;14316;51.074;3.704;2022-08-21T12:58:55;26.60;99.90
26703;DHT22;14316;51.074;3.704;2022-08-21T13:01:31;26.30;99.90
26703;DHT22;14316;51.074;3.704;2022-08-21T13:04:06;26.20;99.90
26703;DHT22;14316;51.074;3.704;2022-08-21T13:06:39;26.60;99.90
26703;DHT22;14316;51.074;3.704;2022-08-21T13:09:11;26.10;99.90
26703;DHT22;14316;51.074;3.704;2022-08-21T13:11:40;26.10;99.90
26703;DHT22;14316;51.074;3.704;2022-08-21T13:14:17;27.10;99.90
26703;DHT22;14316;51.074;3.704;2022-08-21T13:16:45;28.30;99.90
26703;DHT22;14316;51.074;3.704;2022-08-21T13:19:11;28.40;99.90
26703;DHT22;14316;51.074;3.704;2022-08-21T13:21:43;28.10;99.90
26703;DHT22;14316;51.074;3.704;2022-08-21T13:24:19;28.40;99.90
26703;DHT22;14316;51.074;3.704;2022-08-21T13:26:47;28.60;99.90
26703;DHT22;14316;51.074;3.704;2022-08-21T13:29:16;27.50;99.90
26703;DHT22;14316;51.074;3.704;2022-08-21T13:31:57;26.90;99.90
26703;DHT22;14316;51.074;3.704;2022-08-21T13:34:28;26.20;99.90
26703;DHT22;14316;51.074;3.704;2022-08-21T13:36:57;25.70;99.90
26703;DHT22;14316;51.074;3.704;2022-08-21T13:39:27;25.40;99.90
26703;DHT22;14316;51.074;3.704;2022-08-21T13:41:57;25.40;99.90
26703;DHT22;14316;51.074;3.704;2022-08-21T13:44:39;25.50;99.90
26703;DHT22;14316;51.074;3.704;2022-08-21T13:47:06;24.80;99.90
26703;DHT22;14316;51.074;3.704;2022-08-21T13:49:39;24.90;99.90
26703;DHT22;14316;51.074;3.704;2022-08-21T13:52:19;24.80;99.90
26703;DHT22;14316;51.074;3.704;2022-08-21T13:54:56;24.80;99.90
26703;DHT22;14316;51.074;3.704;2022-08-21T13:57:40;24.90;99.90
26703;DHT22;14316;51.074;3.704;2022-08-21T14:00:30;24.70;99.90
26703;DHT22;14316;51.074;3.704;2022-08-21T14:03:04;24.70;99.90
26703;DHT22;14316;51.074;3.704;2022-08-21T14:05:35;24.80;99.90
26703;DHT22;14316;51.074;3.704;2022-08-21T14:08:08;24.70;99.90
26703;DHT22;14316;51.074;3.704;2022-08-21T14:10:45;24.50;99.90
26703;DHT22;14316;51.074;3.704;2022-08-21T14:13:37;24.60;99.90
26703;DHT22;14316;51.074;3.704;2022-08-21T14:16:15;24.80;99.90
26703;DHT22;14316;51.074;3.704;2022-08-21T14:19:09;24.60;99.90
26703;DHT22;14316;51.074;3.704;2022-08-21T14:21:41;24.60;99.90
26703;DHT22;14316;51.074;3.704;2022-08-21T14:24:27;24.70;99.90
26703;DHT22;14316;51.074;3.704;2022-08-21T14:27:05;24.60;99.90
26703;DHT22;14316;51.074;3.704;2022-08-21T14:29:39;24.50;99.90
26703;DHT22;14316;51.074;3.704;2022-08-21T14:34:35;24.30;99.90
26703;DHT22;14316;51.074;3.704;2022-08-21T14:37:01;24.30;99.90
26703;DHT22;14316;51.074;3.704;2022-08-21T14:39:28;24.20;99.90
26703;DHT22;14316;51.074;3.704;2022-08-21T14:41:53;24.50;99.90
26703;DHT22;14316;51.074;3.704;2022-08-21T14:44:20;24.80;99.90
26703;DHT22;14316;51.074;3.704;2022-08-21T14:46:46;24.50;99.90
26703;DHT22;14316;51.074;3.704;2022-08-21T14:49:13;24.40;99.90
26703;DHT22;14316;51.074;3.704;2022-08-21T14:51:40;24.70;99.90
26703;DHT22;14316;51.074;3.704;2022-08-21T14:54:06;25.00;99.90
26703;DHT22;14316;51.074;3.704;2022-08-21T14:56:32;25.20;99.90
26703;DHT22;14316;51.074;3.704;2022-08-21T14:59:06;24.90;99.90
26703;DHT22;14316;51.074;3.704;2022-08-21T15:01:34;24.30;99.90
26703;DHT22;14316;51.074;3.704;2022-08-21T15:04:01;24.50;99.90
26703;DHT22;14316;51.074;3.704;2022-08-21T15:06:27;24.70;99.90
26703;DHT22;14316;51.074;3.704;2022-08-21T15:08:53;24.60;99.90
26703;DHT22;14316;51.074;3.704;2022-08-21T15:11:20;24.90;99.90
26703;DHT22;14316;51.074;3.704;2022-08-21T15:13:47;24.80;99.90
26703;DHT22;14316;51.074;3.704;2022-08-21T15:16:14;24.90;99.90
26703;DHT22;14316;51.074;3.704;2022-08-21T15:18:40;25.40;99.90
26703;DHT22;14316;51.074;3.704;2022-08-21T15:21:07;25.90;99.90
26703;DHT22;14316;51.074;3.704;2022-08-21T15:23:33;25.90;99.90
26703;DHT22;14316;51.074;3.704;2022-08-21T15:25:59;26.20;99.90
26703;DHT22;14316;51.074;3.704;2022-08-21T15:28:25;26.60;99.90
26703;DHT22;14316;51.074;3.704;2022-08-21T15:30:51;27.30;99.90
26703;DHT22;14316;51.074;3.704;2022-08-21T15:33:18;27.90;99.90
26703;DHT22;14316;51.074;3.704;2022-08-21T15:35:44;28.50;99.90
26703;DHT22;14316;51.074;3.704;2022-08-21T15:38:12;29.50;99.90
26703;DHT22;14316;51.074;3.704;2022-08-21T15:40:39;30.40;99.90
26703;DHT22;14316;51.074;3.704;2022-08-21T15:43:06;30.40;99.90
26703;DHT22;14316;51.074;3.704;2022-08-21T15:45:34;28.40;99.90
26703;DHT22;14316;51.074;3.704;2022-08-21T15:48:00;27.40;99.90
26703;DHT22;14316;51.074;3.704;2022-08-21T15:50:26;27.10;99.90
26703;DHT22;14316;51.074;3.704;2022-08-21T15:52:54;26.90;99.90
26703;DHT22;14316;51.074;3.704;2022-08-21T15:55:20;26.60;99.90
26703;DHT22;14316;51.074;3.704;2022-08-21T15:57:48;26.00;99.90
26703;DHT22;14316;51.074;3.704;2022-08-21T16:00:20;26.10;99.90
26703;DHT22;14316;51.074;3.704;2022-08-21T16:02:50;26.40;99.90
26703;DHT22;14316;51.074;3.704;2022-08-21T16:05:19;26.80;99.90
26703;DHT22;14316;51.074;3.704;2022-08-21T16:07:46;27.10;99.90
26703;DHT22;14316;51.074;3.704;2022-08-21T16:10:13;27.60;99.90
26703;DHT22;14316;51.074;3.704;2022-08-21T16:12:44;28.30;99.90
26703;DHT22;14316;51.074;3.704;2022-08-21T16:15:12;29.20;99.90
26703;DHT22;14316;51.074;3.704;2022-08-21T16:17:42;29.90;99.90
26703;DHT22;14316;51.074;3.704;2022-08-21T16:20:15;30.20;99.90
26703;DHT22;14316;51.074;3.704;2022-08-21T16:22:41;29.00;99.90
26703;DHT22;14316;51.074;3.704;2022-08-21T16:25:07;28.10;99.90
26703;DHT22;14316;51.074;3.704;2022-08-21T16:27:34;27.50;99.90
26703;DHT22;14316;51.074;3.704;2022-08-21T16:30:02;26.70;99.90
26703;DHT22;14316;51.074;3.704;2022-08-21T16:32:28;26.80;99.90
26703;DHT22;14316;51.074;3.704;2022-08-21T16:34:54;26.80;99.90
26703;DHT22;14316;51.074;3.704;2022-08-21T16:37:20;26.20;99.90
26703;DHT22;14316;51.074;3.704;2022-08-21T16:39:47;25.60;99.90
26703;DHT22;14316;51.074;3.704;2022-08-21T16:42:20;25.70;99.90
26703;DHT22;14316;51.074;3.704;2022-08-21T16:44:46;25.40;99.90
26703;DHT22;14316;51.074;3.704;2022-08-21T16:47:12;25.30;99.90
26703;DHT22;14316;51.074;3.704;2022-08-21T16:49:37;25.10;99.90
26703;DHT22;14316;51.074;3.704;2022-08-21T16:52:04;25.10;99.90
26703;DHT22;14316;51.074;3.704;2022-08-21T16:54:31;24.90;99.90
26703;DHT22;14316;51.074;3.704;2022-08-21T16:56:57;24.60;99.90
26703;DHT22;14316;51.074;3.704;2022-08-21T16:59:24;24.70;99.90